Who's Online

We have 3 guests online

GK Weather

An error occured during parsing XML data. Please try again.

Aviation WX

[source: ADDS]
METAR
KIAD 282152Z 12009KT 10SM FEW060 FEW250 31/14 A3015 RMK AO2 SLP206 T03110144 =
TAF
KIAD 282058Z 2821/2924 VRB03KT P6SM FEW250 TEMPO 2909/2912 4SM BR SKC FM291200 00000KT P6SM FEW070 FM292000 02004KT P6SM BKN060 =
SR / SS: 00:19 / 13:26 UTC (Washington-Dulles 2016-08-28)

JoomlaWatch Agent

Home Links
We are regularly out on the Web. When we find a great site we list it.